createdAt,value
2019-02-27T00:01:56.321Z,14.27
2019-02-27T00:04:23.979Z,10.60
2019-02-27T00:06:51.533Z,11.17
2019-02-27T00:09:20.463Z,14.93
2019-02-27T00:11:48.021Z,11.97
2019-02-27T00:14:15.739Z,12.33
2019-02-27T00:16:44.742Z,13.80
2019-02-27T00:19:13.139Z,10.53
2019-02-27T00:21:40.874Z,12.47
2019-02-27T00:24:10.185Z,12.00
2019-02-27T00:26:39.505Z,13.07
2019-02-27T00:29:07.100Z,15.20
2019-02-27T00:31:34.668Z,12.13
2019-02-27T00:34:02.487Z,11.23
2019-02-27T00:36:30.078Z,13.90
2019-02-27T00:38:58.474Z,12.47
2019-02-27T00:41:28.075Z,14.60
2019-02-27T00:43:55.673Z,12.77
2019-02-27T00:46:23.277Z,12.37
2019-02-27T00:48:54.020Z,13.30
2019-02-27T00:51:21.533Z,12.50
2019-02-27T00:53:49.289Z,12.87
2019-02-27T00:56:16.958Z,13.97
2019-02-27T00:58:44.573Z,17.27
2019-02-27T01:01:12.590Z,13.67
2019-02-27T01:03:40.879Z,16.43
2019-02-27T01:06:08.416Z,19.97
2019-02-27T01:08:37.278Z,14.57
2019-02-27T01:11:04.784Z,17.03
2019-02-27T01:13:32.371Z,15.80
2019-02-27T01:15:59.927Z,17.77
2019-02-27T01:18:30.385Z,14.60
2019-02-27T01:20:56.805Z,16.73
2019-02-27T01:23:24.388Z,15.43
2019-02-27T01:25:56.069Z,15.73
2019-02-27T01:28:24.924Z,19.30
2019-02-27T01:30:52.645Z,16.70
2019-02-27T01:33:20.236Z,18.93
2019-02-27T01:35:51.338Z,15.80
2019-02-27T01:38:17.154Z,18.30
2019-02-27T01:40:44.797Z,16.80
2019-02-27T01:43:12.334Z,15.07
2019-02-27T01:45:39.842Z,17.77
2019-02-27T01:48:09.185Z,19.00
2019-02-27T01:50:37.409Z,23.50
2019-02-27T01:53:07.377Z,19.90
2019-02-27T01:55:35.732Z,17.57
2019-02-27T01:58:03.420Z,18.17
2019-02-27T02:00:31.095Z,16.77
2019-02-27T02:02:58.684Z,15.50
2019-02-27T02:05:27.445Z,14.67
2019-02-27T02:07:58.401Z,19.47
2019-02-27T02:10:28.302Z,15.30
2019-02-27T02:13:22.612Z,16.23
2019-02-27T02:16:34.126Z,17.97
2019-02-27T02:19:42.375Z,15.67
2019-02-27T02:22:54.842Z,16.10
2019-02-27T02:25:44.488Z,17.10
2019-02-27T02:28:51.001Z,14.80
2019-02-27T02:31:41.609Z,16.47
2019-02-27T02:34:51.423Z,17.50
2019-02-27T02:37:50.589Z,16.43
2019-02-27T02:40:45.279Z,16.27
2019-02-27T02:43:44.512Z,16.17
2019-02-27T02:46:20.202Z,16.30
2019-02-27T02:49:13.403Z,18.93
2019-02-27T02:51:55.160Z,17.57
2019-02-27T02:54:54.360Z,15.73
2019-02-27T02:57:47.494Z,16.17
2019-02-27T03:01:05.061Z,15.80
2019-02-27T03:03:48.129Z,15.03
2019-02-27T03:06:45.034Z,16.93
2019-02-27T03:09:45.005Z,16.17
2019-02-27T03:12:58.817Z,13.13
2019-02-27T03:16:05.921Z,17.47
2019-02-27T03:19:17.489Z,16.63
2019-02-27T03:22:21.177Z,16.67
2019-02-27T03:25:40.133Z,16.60
2019-02-27T03:28:41.935Z,16.40
2019-02-27T03:31:37.330Z,15.67
2019-02-27T03:34:50.197Z,18.10
2019-02-27T03:37:49.485Z,15.83
2019-02-27T03:40:45.101Z,14.03
2019-02-27T03:43:46.051Z,15.47
2019-02-27T03:46:40.442Z,17.00
2019-02-27T03:49:51.588Z,16.37
2019-02-27T03:52:48.559Z,18.70
2019-02-27T03:55:49.607Z,18.10
2019-02-27T03:59:07.936Z,16.17
2019-02-27T04:02:17.048Z,16.27
2019-02-27T04:05:32.036Z,15.17
2019-02-27T04:08:49.209Z,16.03
2019-02-27T04:11:16.813Z,16.57
2019-02-27T04:13:44.391Z,14.43
2019-02-27T04:16:11.924Z,16.70
2019-02-27T04:18:45.370Z,18.00
2019-02-27T04:21:13.128Z,14.87
2019-02-27T04:23:40.700Z,15.60
2019-02-27T04:26:08.371Z,17.60
2019-02-27T04:28:35.910Z,17.20
2019-02-27T04:31:03.451Z,15.13
2019-02-27T04:33:31.026Z,17.93
2019-02-27T04:35:58.523Z,18.37
2019-02-27T04:38:34.393Z,15.23
2019-02-27T04:41:03.008Z,16.27
2019-02-27T04:43:32.262Z,15.27
2019-02-27T04:45:59.880Z,16.60
2019-02-27T04:48:30.020Z,16.17
2019-02-27T04:50:56.779Z,16.77
2019-02-27T04:53:24.304Z,17.63
2019-02-27T04:55:51.847Z,16.97
2019-02-27T04:58:20.534Z,15.13
2019-02-27T05:00:48.119Z,16.43
2019-02-27T05:03:15.657Z,16.17
2019-02-27T05:05:43.193Z,16.60
2019-02-27T05:08:11.758Z,17.00
2019-02-27T05:10:40.549Z,21.73
2019-02-27T05:13:08.694Z,17.03
2019-02-27T05:15:38.885Z,14.33
2019-02-27T05:18:11.899Z,16.23
2019-02-27T05:20:46.901Z,14.87
2019-02-27T05:23:14.502Z,15.03
2019-02-27T05:25:42.074Z,15.77
2019-02-27T05:28:09.602Z,17.80
2019-02-27T05:30:37.187Z,16.33
2019-02-27T05:33:06.786Z,13.90
2019-02-27T05:35:34.327Z,15.90
2019-02-27T05:38:09.428Z,16.13
2019-02-27T05:40:37.153Z,16.50
2019-02-27T05:43:04.864Z,16.87
2019-02-27T05:45:32.458Z,20.70
2019-02-27T05:48:02.204Z,14.47
2019-02-27T05:50:33.956Z,17.00
2019-02-27T05:52:59.107Z,15.43
2019-02-27T05:55:33.099Z,17.30
2019-02-27T05:58:09.794Z,16.57
2019-02-27T06:00:35.938Z,20.17
2019-02-27T06:03:07.463Z,14.53
2019-02-27T06:05:36.014Z,17.53
2019-02-27T06:08:08.761Z,17.03
2019-02-27T06:10:59.156Z,18.10
2019-02-27T06:13:30.056Z,14.53
2019-02-27T06:16:02.557Z,18.00
2019-02-27T06:18:30.056Z,15.40
2019-02-27T06:21:02.393Z,16.50
2019-02-27T06:23:38.509Z,15.23
2019-02-27T06:26:06.439Z,15.97
2019-02-27T06:28:39.098Z,16.13
2019-02-27T06:31:06.693Z,14.67
2019-02-27T06:33:34.328Z,14.27
2019-02-27T06:36:05.327Z,17.77
2019-02-27T06:38:44.493Z,14.93
2019-02-27T06:41:15.359Z,15.57
2019-02-27T06:43:41.540Z,16.17
2019-02-27T06:46:09.105Z,21.90
2019-02-27T06:48:36.686Z,16.17
2019-02-27T06:51:04.223Z,16.37
2019-02-27T06:53:32.113Z,18.00
2019-02-27T06:56:03.451Z,19.20
2019-02-27T06:58:36.888Z,17.60
2019-02-27T07:01:07.026Z,18.17
2019-02-27T07:03:33.862Z,18.17
2019-02-27T07:06:01.397Z,16.63
2019-02-27T07:08:28.992Z,18.20
2019-02-27T07:10:58.951Z,16.33
2019-02-27T07:13:26.754Z,19.27
2019-02-27T07:15:55.707Z,16.90
2019-02-27T07:18:23.413Z,19.13
2019-02-27T07:20:50.941Z,17.57
2019-02-27T07:23:22.639Z,17.47
2019-02-27T07:25:47.893Z,20.07
2019-02-27T07:28:22.659Z,19.50
2019-02-27T07:30:50.278Z,19.80
2019-02-27T07:33:17.885Z,18.07
2019-02-27T07:35:45.411Z,18.73
2019-02-27T07:38:21.426Z,18.70
2019-02-27T07:40:46.837Z,16.00
2019-02-27T07:43:14.462Z,18.10
2019-02-27T07:45:42.796Z,16.57
2019-02-27T07:48:11.268Z,18.73
2019-02-27T07:50:38.915Z,15.60
2019-02-27T07:53:06.541Z,18.83
2019-02-27T07:55:34.078Z,16.53
2019-02-27T07:58:01.692Z,21.87
2019-02-27T08:00:29.232Z,17.50
2019-02-27T08:02:56.794Z,17.93
2019-02-27T08:05:27.895Z,17.83
2019-02-27T08:07:53.712Z,21.50
2019-02-27T08:10:21.272Z,20.60
2019-02-27T08:12:55.500Z,17.43
2019-02-27T08:15:20.944Z,18.27
2019-02-27T08:17:49.532Z,19.10
2019-02-27T08:20:20.200Z,14.33
2019-02-27T08:22:46.470Z,20.80
2019-02-27T08:25:14.146Z,19.07
2019-02-27T08:27:47.233Z,18.17
2019-02-27T08:30:17.252Z,18.33
2019-02-27T08:32:44.832Z,16.03
2019-02-27T08:35:12.476Z,18.43
2019-02-27T08:37:40.035Z,17.87
2019-02-27T08:40:07.776Z,15.43
2019-02-27T08:42:37.372Z,16.10
2019-02-27T08:45:05.118Z,16.87
2019-02-27T08:47:33.669Z,17.03
2019-02-27T08:50:01.418Z,13.77
2019-02-27T08:52:28.932Z,14.43
2019-02-27T08:54:56.482Z,11.30
2019-02-27T08:57:27.081Z,12.03
2019-02-27T08:59:54.649Z,12.10
2019-02-27T09:02:24.156Z,12.23
2019-02-27T09:04:51.546Z,12.47
2019-02-27T09:07:20.155Z,11.40
2019-02-27T09:09:51.178Z,11.67
2019-02-27T09:12:17.050Z,13.03
2019-02-27T09:14:44.632Z,12.00
2019-02-27T09:17:12.167Z,12.73
2019-02-27T09:19:44.964Z,10.43
2019-02-27T09:22:09.118Z,14.43
2019-02-27T09:24:38.024Z,13.13
2019-02-27T09:27:05.556Z,15.23
2019-02-27T09:29:33.183Z,13.30
2019-02-27T09:32:00.739Z,10.27
2019-02-27T09:34:28.341Z,10.10
2019-02-27T09:36:55.865Z,10.37
2019-02-27T09:39:23.436Z,8.67
2019-02-27T09:41:55.711Z,12.43
2019-02-27T09:44:23.239Z,12.87
2019-02-27T09:46:52.380Z,10.60
2019-02-27T09:49:20.087Z,9.87
2019-02-27T09:51:48.197Z,10.87
2019-02-27T09:54:15.780Z,10.47
2019-02-27T09:56:43.325Z,11.53
2019-02-27T09:59:10.852Z,10.83
2019-02-27T10:01:38.720Z,10.13
2019-02-27T10:04:06.295Z,12.13
2019-02-27T10:06:33.872Z,13.37
2019-02-27T10:09:01.429Z,13.87
2019-02-27T10:11:29.014Z,9.50
2019-02-27T10:13:56.665Z,12.23
2019-02-27T10:16:24.197Z,13.00
2019-02-27T10:18:54.840Z,10.87
2019-02-27T10:21:21.245Z,12.27
2019-02-27T10:23:48.793Z,12.87
2019-02-27T10:26:16.676Z,13.03
2019-02-27T10:29:06.895Z,11.47
2019-02-27T10:31:34.578Z,12.57
2019-02-27T10:34:02.164Z,14.50
2019-02-27T10:36:29.770Z,15.67
2019-02-27T10:39:02.116Z,17.77
2019-02-27T10:41:30.333Z,15.47
2019-02-27T10:43:57.853Z,18.57
2019-02-27T10:46:25.776Z,20.80
2019-02-27T10:48:53.329Z,17.60
2019-02-27T10:51:21.060Z,21.27
2019-02-27T10:53:50.340Z,17.93
2019-02-27T10:56:18.041Z,17.57
2019-02-27T10:58:48.227Z,17.70
2019-02-27T11:01:15.833Z,15.13
2019-02-27T11:03:43.448Z,17.47
2019-02-27T11:06:11.011Z,17.63
2019-02-27T11:08:42.149Z,18.37
2019-02-27T11:11:09.720Z,18.90
2019-02-27T11:13:37.227Z,20.17
2019-02-27T11:16:04.815Z,21.27
2019-02-27T11:18:33.367Z,19.90
2019-02-27T11:21:00.943Z,18.63
2019-02-27T11:23:28.483Z,21.07
2019-02-27T11:25:56.960Z,21.60
2019-02-27T11:28:25.246Z,18.60
2019-02-27T11:30:52.805Z,18.07
2019-02-27T11:33:25.718Z,20.67
2019-02-27T11:35:49.871Z,22.47
2019-02-27T11:38:17.452Z,20.23
2019-02-27T11:40:44.960Z,19.87
2019-02-27T11:43:12.793Z,21.33
2019-02-27T11:45:40.370Z,22.63
2019-02-27T11:48:25.395Z,16.73
2019-02-27T11:50:53.018Z,19.43
2019-02-27T11:53:21.731Z,15.97
2019-02-27T11:55:49.335Z,20.13
2019-02-27T11:58:38.503Z,20.50
2019-02-27T12:01:06.033Z,19.17
2019-02-27T12:03:35.478Z,20.10
2019-02-27T12:06:05.322Z,20.23
2019-02-27T12:08:35.603Z,18.73
2019-02-27T12:11:05.907Z,20.37
2019-02-27T12:13:36.102Z,23.40
2019-02-27T12:16:07.022Z,19.00
2019-02-27T12:18:35.206Z,17.60
2019-02-27T12:21:05.146Z,16.53
2019-02-27T12:23:33.051Z,18.53
2019-02-27T12:26:02.459Z,21.90
2019-02-27T12:28:34.756Z,17.93
2019-02-27T12:31:02.514Z,19.13
2019-02-27T12:33:30.124Z,17.67
2019-02-27T12:36:01.202Z,17.90
2019-02-27T12:38:31.801Z,19.23
2019-02-27T12:41:03.696Z,16.13
2019-02-27T12:43:38.189Z,16.23
2019-02-27T12:46:10.885Z,17.10
2019-02-27T12:48:38.587Z,17.97
2019-02-27T12:51:06.221Z,19.13
2019-02-27T12:53:33.800Z,16.30
2019-02-27T12:56:01.705Z,16.43
2019-02-27T12:58:32.794Z,15.47
2019-02-27T13:01:00.676Z,18.00
2019-02-27T13:03:30.522Z,20.57
2019-02-27T13:06:00.757Z,19.60
2019-02-27T13:08:27.579Z,16.17
2019-02-27T13:10:55.080Z,20.37
2019-02-27T13:13:23.284Z,17.30
2019-02-27T13:15:54.081Z,18.63
2019-02-27T13:18:22.663Z,17.93
2019-02-27T13:20:50.137Z,18.77
2019-02-27T13:23:18.076Z,23.20
2019-02-27T13:25:45.589Z,20.60
2019-02-27T13:28:16.195Z,21.63
2019-02-27T13:30:43.771Z,17.43
2019-02-27T13:33:11.517Z,16.10
2019-02-27T13:35:39.068Z,22.07
2019-02-27T13:38:11.019Z,15.93
2019-02-27T13:40:38.520Z,18.93
2019-02-27T13:43:06.080Z,20.37
2019-02-27T13:45:33.639Z,22.27
2019-02-27T13:48:05.852Z,19.53
2019-02-27T13:50:32.804Z,19.67
2019-02-27T13:53:00.368Z,18.27
2019-02-27T13:55:28.201Z,18.90
2019-02-27T13:57:58.802Z,18.83
2019-02-27T14:00:27.158Z,19.63
2019-02-27T14:02:57.658Z,19.47
2019-02-27T14:05:29.311Z,22.27
2019-02-27T14:07:58.463Z,19.80
2019-02-27T14:10:33.885Z,20.13
2019-02-27T14:13:01.724Z,23.60
2019-02-27T14:15:31.257Z,20.10
2019-02-27T14:17:58.911Z,24.30
2019-02-27T14:20:28.979Z,20.37
2019-02-27T14:23:00.960Z,20.33
2019-02-27T14:25:35.021Z,20.73
2019-02-27T14:31:13.117Z,20.73
2019-02-27T14:33:44.252Z,21.93
2019-02-27T14:36:11.878Z,21.60
2019-02-27T14:38:42.935Z,21.33
2019-02-27T14:41:16.505Z,22.20
2019-02-27T14:43:44.150Z,21.70
2019-02-27T14:46:17.926Z,25.53
2019-02-27T14:48:47.942Z,23.03
2019-02-27T14:51:15.586Z,23.03
2019-02-27T14:53:43.156Z,25.03
2019-02-27T14:56:17.833Z,22.70
2019-02-27T14:59:03.790Z,20.67
2019-02-27T15:01:33.894Z,21.67
2019-02-27T15:04:10.304Z,23.77
2019-02-27T15:06:46.676Z,19.13
2019-02-27T15:09:20.582Z,23.27
2019-02-27T15:11:48.878Z,22.60
2019-02-27T15:14:26.081Z,22.43
2019-02-27T15:16:59.982Z,22.90
2019-02-27T15:19:35.439Z,23.43
2019-02-27T15:22:08.214Z,20.13
2019-02-27T15:24:35.896Z,22.07
2019-02-27T15:27:14.537Z,22.33
2019-02-27T15:29:44.806Z,19.83
2019-02-27T15:32:16.530Z,23.13
2019-02-27T15:34:49.822Z,24.07
2019-02-27T15:37:21.122Z,22.20
2019-02-27T15:39:54.982Z,24.20
2019-02-27T15:42:22.491Z,21.90
2019-02-27T15:44:53.256Z,22.70
2019-02-27T15:47:30.313Z,22.73
2019-02-27T15:50:34.249Z,25.07
2019-02-27T15:53:23.041Z,21.53
2019-02-27T15:56:09.288Z,23.33
2019-02-27T15:58:41.638Z,23.77
2019-02-27T16:01:53.054Z,21.27
2019-02-27T16:04:25.196Z,23.70
2019-02-27T16:06:57.765Z,24.00
2019-02-27T16:10:08.065Z,26.17
2019-02-27T16:12:35.199Z,23.80
2019-02-27T16:15:09.636Z,23.70
2019-02-27T16:17:37.299Z,24.53
2019-02-27T16:20:17.945Z,24.80
2019-02-27T16:22:47.950Z,25.77
2019-02-27T16:25:33.358Z,27.17
2019-02-27T16:28:02.287Z,24.23
2019-02-27T16:30:32.323Z,24.00
2019-02-27T16:33:00.157Z,24.07
2019-02-27T16:35:27.824Z,28.03
2019-02-27T16:38:14.052Z,22.80
2019-02-27T16:40:41.728Z,26.10
2019-02-27T16:43:13.457Z,24.70
2019-02-27T16:45:42.071Z,22.80
2019-02-27T16:48:11.332Z,22.47
2019-02-27T16:50:45.542Z,26.97
2019-02-27T16:53:18.452Z,31.00
2019-02-27T16:55:50.650Z,26.60
2019-02-27T16:58:32.658Z,25.83
2019-02-27T17:01:00.777Z,26.77
2019-02-27T17:03:36.305Z,26.60
2019-02-27T17:06:09.406Z,23.30
2019-02-27T17:08:44.667Z,22.90
2019-02-27T17:11:32.489Z,25.93
2019-02-27T17:14:05.744Z,27.37
2019-02-27T17:16:45.489Z,24.47
2019-02-27T17:19:21.611Z,25.80
2019-02-27T17:21:49.776Z,24.27
2019-02-27T17:24:20.946Z,23.40
2019-02-27T17:26:55.605Z,23.83
2019-02-27T17:29:27.082Z,26.57
2019-02-27T17:31:59.583Z,22.77
2019-02-27T17:34:31.994Z,25.13
2019-02-27T17:37:07.234Z,25.00
2019-02-27T17:39:37.305Z,21.13
2019-02-27T17:42:18.544Z,23.23
2019-02-27T17:44:48.716Z,22.17
2019-02-27T17:47:21.658Z,20.33
2019-02-27T17:49:49.332Z,21.87
2019-02-27T17:52:19.519Z,24.43
2019-02-27T17:54:52.440Z,26.03
2019-02-27T17:57:31.038Z,22.43
2019-02-27T18:00:04.120Z,25.40
2019-02-27T18:02:33.225Z,26.20
2019-02-27T18:05:28.669Z,32.27
2019-02-27T18:08:01.075Z,23.27
2019-02-27T18:10:31.088Z,25.23
2019-02-27T18:12:58.843Z,27.13
2019-02-27T18:15:28.202Z,23.50
2019-02-27T18:18:10.608Z,25.97
2019-02-27T18:20:41.301Z,22.03
2019-02-27T18:23:09.103Z,28.23
2019-02-27T18:25:42.040Z,25.40
2019-02-27T18:28:12.677Z,23.50
2019-02-27T18:30:42.632Z,27.10
2019-02-27T18:33:14.291Z,26.07
2019-02-27T18:35:48.195Z,23.77
2019-02-27T18:38:21.127Z,24.93
2019-02-27T18:40:51.558Z,25.57
2019-02-27T18:43:22.082Z,22.80
2019-02-27T18:45:56.974Z,26.47
2019-02-27T18:48:44.433Z,28.47
2019-02-27T18:51:15.170Z,28.57
2019-02-27T18:53:48.304Z,25.80
2019-02-27T18:56:17.112Z,27.47
2019-02-27T18:58:44.819Z,27.53
2019-02-27T19:01:13.121Z,30.23
2019-02-27T19:03:40.915Z,27.67
2019-02-27T19:06:17.131Z,31.47
2019-02-27T19:08:47.118Z,28.53
2019-02-27T19:11:22.304Z,33.27
2019-02-27T19:13:50.433Z,32.00
2019-02-27T19:16:21.566Z,30.20
2019-02-27T19:18:58.230Z,29.03
2019-02-27T19:21:32.764Z,30.20
2019-02-27T19:23:57.604Z,28.73
2019-02-27T19:26:44.322Z,30.40
2019-02-27T19:29:18.034Z,26.43
2019-02-27T19:31:45.549Z,29.77
2019-02-27T19:34:18.503Z,31.23
2019-02-27T19:36:46.189Z,33.03
2019-02-27T19:39:13.925Z,29.13
2019-02-27T19:41:50.890Z,30.67
2019-02-27T19:44:20.389Z,31.00
2019-02-27T19:47:11.618Z,31.50
2019-02-27T19:49:57.180Z,28.97
2019-02-27T19:52:26.948Z,31.73
2019-02-27T19:54:54.797Z,32.90
2019-02-27T19:57:42.317Z,32.70
2019-02-27T20:00:20.251Z,33.97
2019-02-27T20:02:47.931Z,34.13
2019-02-27T20:05:19.130Z,28.27
2019-02-27T20:07:51.775Z,34.23
2019-02-27T20:10:22.907Z,29.67
2019-02-27T20:12:53.872Z,30.30
2019-02-27T20:15:23.378Z,31.03
2019-02-27T20:17:56.024Z,34.73
2019-02-27T20:20:24.581Z,27.13
2019-02-27T20:22:56.589Z,29.43
2019-02-27T20:25:33.207Z,30.03
2019-02-27T20:28:02.939Z,31.13
2019-02-27T20:30:33.415Z,28.87
2019-02-27T20:33:02.579Z,32.37
2019-02-27T20:35:30.929Z,30.37
2019-02-27T20:38:07.629Z,32.17
2019-02-27T20:40:37.502Z,33.27
2019-02-27T20:43:08.140Z,33.87
2019-02-27T20:45:40.025Z,26.77
2019-02-27T20:48:26.058Z,30.67
2019-02-27T20:50:55.257Z,32.90
2019-02-27T20:53:23.515Z,34.50
2019-02-27T20:55:51.303Z,38.57
2019-02-27T20:58:24.281Z,34.70
2019-02-27T21:00:53.628Z,37.97
2019-02-27T21:03:26.692Z,39.70
2019-02-27T21:05:52.532Z,37.67
2019-02-27T21:08:22.875Z,39.50
2019-02-27T21:10:54.888Z,34.80
2019-02-27T21:13:21.918Z,38.27
2019-02-27T21:15:52.584Z,37.57
2019-02-27T21:18:20.295Z,38.87
2019-02-27T21:20:47.910Z,39.00
2019-02-27T21:23:15.518Z,35.23
2019-02-27T21:25:48.649Z,34.57
2019-02-27T21:28:21.267Z,37.70
2019-02-27T21:30:51.830Z,41.80
2019-02-27T21:33:19.546Z,36.60
2019-02-27T21:35:48.979Z,37.30
2019-02-27T21:38:25.836Z,31.87
2019-02-27T21:40:53.507Z,42.07
2019-02-27T21:43:25.391Z,41.03
2019-02-27T21:45:50.522Z,39.37
2019-02-27T21:48:39.084Z,37.30
2019-02-27T21:51:10.989Z,38.27
2019-02-27T21:53:42.264Z,40.87
2019-02-27T21:56:18.083Z,38.83
2019-02-27T21:58:50.189Z,40.43
2019-02-27T22:01:19.373Z,37.83
2019-02-27T22:03:49.908Z,36.23
2019-02-27T22:06:17.508Z,33.47
2019-02-27T22:08:51.811Z,32.53
2019-02-27T22:11:24.193Z,33.53
2019-02-27T22:13:52.269Z,35.17
2019-02-27T22:16:19.927Z,36.27
2019-02-27T22:18:59.952Z,34.97
2019-02-27T22:21:34.852Z,34.20
2019-02-27T22:24:05.268Z,35.17
2019-02-27T22:26:34.255Z,28.53
2019-02-27T22:29:02.261Z,34.90
2019-02-27T22:31:40.272Z,31.87
2019-02-27T22:34:10.449Z,35.17
2019-02-27T22:36:38.060Z,34.83
2019-02-27T22:39:07.109Z,33.93
2019-02-27T22:41:34.853Z,34.93
2019-02-27T22:44:02.579Z,32.47
2019-02-27T22:46:33.875Z,31.70
2019-02-27T22:49:11.927Z,41.57
2019-02-27T22:51:39.917Z,33.53
2019-02-27T22:54:17.623Z,33.70
2019-02-27T22:56:51.555Z,30.13
2019-02-27T22:59:20.066Z,33.23
2019-02-27T23:01:50.994Z,35.23
2019-02-27T23:04:18.816Z,36.33
2019-02-27T23:07:04.839Z,35.17
2019-02-27T23:09:37.737Z,34.63
2019-02-27T23:12:12.376Z,35.33
2019-02-27T23:14:43.112Z,35.57
2019-02-27T23:17:13.965Z,33.63
2019-02-27T23:19:46.094Z,32.53
2019-02-27T23:22:11.380Z,38.87
2019-02-27T23:24:43.888Z,32.40
2019-02-27T23:27:15.374Z,32.33
2019-02-27T23:29:44.788Z,32.20
2019-02-27T23:32:13.293Z,32.70
2019-02-27T23:34:43.642Z,32.67
2019-02-27T23:37:18.975Z,32.13
2019-02-27T23:39:48.083Z,31.00
2019-02-27T23:42:18.519Z,36.23
2019-02-27T23:44:50.949Z,34.43
2019-02-27T23:47:23.792Z,35.80
2019-02-27T23:49:55.371Z,31.50
2019-02-27T23:52:27.307Z,29.60
2019-02-27T23:54:54.857Z,29.70
2019-02-27T23:57:28.545Z,29.83
2019-02-27T23:59:56.096Z,32.73
